createdAt,value
2023-04-22T00:00:36.052Z,56.8483
2023-04-22T00:01:37.723Z,56.7539
2023-04-22T00:02:39.433Z,56.5900
2023-04-22T00:03:41.243Z,56.2508
2023-04-22T00:04:43.180Z,56.1468
2023-04-22T00:05:44.349Z,56.0089
2023-04-22T00:06:45.906Z,56.0512
2023-04-22T00:07:47.590Z,56.0149
2023-04-22T00:08:49.218Z,56.0829
2023-04-22T00:09:50.940Z,56.2203
2023-04-22T00:10:52.488Z,56.3425
2023-04-22T00:11:54.195Z,56.7280
2023-04-22T00:12:55.817Z,56.4715
2023-04-22T00:13:57.562Z,56.6383
2023-04-22T00:14:59.149Z,56.4033
2023-04-22T00:16:00.816Z,56.0568
2023-04-22T00:17:02.416Z,56.1521
2023-04-22T00:18:04.157Z,55.9778
2023-04-22T00:19:05.753Z,55.8649
2023-04-22T00:20:07.439Z,55.8438
2023-04-22T00:21:08.980Z,55.9030
2023-04-22T00:22:10.667Z,55.9613
2023-04-22T00:23:12.279Z,56.1932
2023-04-22T00:24:14.629Z,56.2579
2023-04-22T00:25:15.639Z,56.3457
2023-04-22T00:26:17.298Z,56.2800
2023-04-22T00:27:18.981Z,56.3100
2023-04-22T00:28:20.559Z,55.9602
2023-04-22T00:29:22.306Z,55.9189
2023-04-22T00:30:23.923Z,55.6470
2023-04-22T00:31:25.535Z,55.5190
2023-04-22T00:32:27.210Z,55.5535
2023-04-22T00:33:28.758Z,55.5801
2023-04-22T00:34:30.502Z,55.6326
2023-04-22T00:35:32.101Z,55.8478
2023-04-22T00:36:33.761Z,56.0841
2023-04-22T00:37:35.434Z,56.2552
2023-04-22T00:38:37.044Z,56.1203
2023-04-22T00:39:39.142Z,55.8954
2023-04-22T00:40:40.380Z,55.9462
2023-04-22T00:41:41.930Z,55.8195
2023-04-22T00:42:43.667Z,55.5258
2023-04-22T00:43:45.249Z,55.3302
2023-04-22T00:44:46.982Z,55.4467
2023-04-22T00:45:48.592Z,55.5605
2023-04-22T00:46:50.257Z,55.7069
2023-04-22T00:47:51.938Z,55.8561
2023-04-22T00:48:53.525Z,55.9952
2023-04-22T00:49:55.247Z,55.8036
2023-04-22T00:50:56.888Z,56.0385
2023-04-22T00:51:58.440Z,55.9098
2023-04-22T00:53:00.117Z,55.6249
2023-04-22T00:54:01.741Z,55.2636
2023-04-22T00:55:04.125Z,55.2325
2023-04-22T00:56:05.074Z,55.1063
2023-04-22T00:57:06.754Z,55.1272
2023-04-22T00:58:08.392Z,55.2443
2023-04-22T00:59:10.048Z,55.3510
2023-04-22T01:00:11.655Z,55.6332
2023-04-22T01:01:14.189Z,55.6851
2023-04-22T01:02:15.003Z,55.7697
2023-04-22T01:03:16.719Z,55.7850
2023-04-22T01:04:18.335Z,55.7760
2023-04-22T01:05:19.960Z,55.7792
2023-04-22T01:06:21.535Z,55.2798
2023-04-22T01:07:23.250Z,54.9934
2023-04-22T01:08:24.860Z,54.8255
2023-04-22T01:09:26.481Z,54.9299
2023-04-22T01:10:28.094Z,54.9386
2023-04-22T01:11:30.606Z,54.8975
2023-04-22T01:12:31.427Z,55.0066
2023-04-22T01:13:33.118Z,55.1565
2023-04-22T01:14:34.669Z,55.2736
2023-04-22T01:15:36.407Z,55.4911
2023-04-22T01:16:38.055Z,55.6713
2023-04-22T01:17:39.772Z,55.7488
2023-04-22T01:18:41.295Z,55.6825
2023-04-22T01:19:43.644Z,55.5508
2023-04-22T01:20:44.535Z,55.2191
2023-04-22T01:21:46.240Z,55.1157
2023-04-22T01:22:47.839Z,55.0435
2023-04-22T01:23:49.618Z,55.1023
2023-04-22T01:24:51.225Z,55.2295
2023-04-22T01:25:52.820Z,55.3496
2023-04-22T01:26:54.429Z,55.5204
2023-04-22T01:27:56.197Z,55.5122
2023-04-22T01:28:57.800Z,55.3101
2023-04-22T01:29:59.509Z,55.5330
2023-04-22T01:31:01.113Z,55.4106
2023-04-22T01:32:02.755Z,55.1676
2023-04-22T01:33:04.443Z,55.1400
2023-04-22T01:34:06.021Z,55.0907
2023-04-22T01:35:08.076Z,54.9146
2023-04-22T01:36:10.967Z,55.0045
2023-04-22T01:37:10.933Z,55.1671
2023-04-22T01:38:12.618Z,55.3232
2023-04-22T01:39:14.250Z,55.5918
2023-04-22T01:40:15.979Z,55.3847
2023-04-22T01:41:17.574Z,55.3110
2023-04-22T01:42:19.207Z,55.2685
2023-04-22T01:43:20.808Z,55.2771
2023-04-22T01:44:22.507Z,55.2320
2023-04-22T01:45:24.578Z,55.0215
2023-04-22T01:46:26.228Z,54.9839
2023-04-22T01:47:27.480Z,54.8271
2023-04-22T01:48:29.106Z,54.7079
2023-04-22T01:49:30.713Z,54.8254
2023-04-22T01:50:32.433Z,54.8785
2023-04-22T01:51:34.111Z,54.8096
2023-04-22T01:52:35.662Z,54.9440
2023-04-22T01:53:37.338Z,55.1758
2023-04-22T01:54:38.957Z,55.1524
2023-04-22T01:55:40.664Z,55.2852
2023-04-22T01:56:42.305Z,54.9028
2023-04-22T01:57:44.011Z,54.7754
2023-04-22T01:58:45.549Z,54.8846
2023-04-22T01:59:47.281Z,54.8956
2023-04-22T02:00:48.888Z,54.6639
2023-04-22T02:01:50.620Z,54.4170
2023-04-22T02:02:52.238Z,54.2580
2023-04-22T02:03:53.843Z,53.8428
2023-04-22T02:04:55.453Z,53.8548
2023-04-22T02:05:57.611Z,53.8177
2023-04-22T02:06:59.003Z,53.6954
2023-04-22T02:08:00.389Z,53.7471
2023-04-22T02:09:01.959Z,53.8282
2023-04-22T02:10:03.643Z,53.9019
2023-04-22T02:11:05.269Z,54.0397
2023-04-22T02:12:06.980Z,54.1209
2023-04-22T02:13:08.601Z,54.2563
2023-04-22T02:14:10.219Z,54.3808
2023-04-22T02:15:11.855Z,54.5661
2023-04-22T02:16:13.625Z,54.7049
2023-04-22T02:17:15.193Z,54.5201
2023-04-22T02:18:16.878Z,54.5726
2023-04-22T02:19:18.457Z,54.4353
2023-04-22T02:20:20.198Z,54.2973
2023-04-22T02:21:21.730Z,54.3096
2023-04-22T02:22:23.571Z,53.9735
2023-04-22T02:23:25.214Z,53.7139
2023-04-22T02:24:26.766Z,53.8180
2023-04-22T02:25:28.461Z,53.9075
2023-04-22T02:26:30.054Z,54.0182
2023-04-22T02:27:31.785Z,54.0787
2023-04-22T02:28:33.519Z,54.1547
2023-04-22T02:29:35.061Z,54.2754
2023-04-22T02:30:36.648Z,54.7123
2023-04-22T02:31:38.417Z,54.8159
2023-04-22T02:32:40.070Z,54.9359
2023-04-22T02:33:41.692Z,54.5252
2023-04-22T02:34:43.540Z,54.6279
2023-04-22T02:35:44.949Z,54.4984
2023-04-22T02:36:46.571Z,54.2874
2023-04-22T02:37:48.219Z,54.2068
2023-04-22T02:38:50.045Z,54.0861
2023-04-22T02:39:51.546Z,54.1125
2023-04-22T02:40:53.149Z,54.0026
2023-04-22T02:41:54.816Z,54.1223
2023-04-22T02:42:56.449Z,54.1925
2023-04-22T02:43:58.166Z,54.2907
2023-04-22T02:45:00.112Z,54.5289
2023-04-22T02:46:01.453Z,54.7526
2023-04-22T02:47:04.156Z,54.4226
2023-04-22T02:48:04.834Z,54.4767
2023-04-22T02:49:06.363Z,54.2635
2023-04-22T02:50:08.083Z,54.2387
2023-04-22T02:51:09.631Z,54.2248
2023-04-22T02:52:11.335Z,54.0270
2023-04-22T02:53:15.609Z,53.7827
2023-04-22T02:54:16.601Z,53.7910
2023-04-22T02:55:16.312Z,53.5745
2023-04-22T02:56:17.959Z,53.6858
2023-04-22T02:57:19.543Z,53.7811
2023-04-22T02:58:21.237Z,53.8428
2023-04-22T02:59:22.900Z,54.0415
2023-04-22T03:00:24.641Z,54.1884
2023-04-22T03:01:26.336Z,54.2681
2023-04-22T03:02:28.701Z,54.1827
2023-04-22T03:03:29.583Z,54.0881
2023-04-22T03:04:31.172Z,53.8308
2023-04-22T03:05:32.789Z,53.7280
2023-04-22T03:06:34.475Z,53.5546
2023-04-22T03:07:37.126Z,53.4173
2023-04-22T03:08:37.757Z,53.2440
2023-04-22T03:09:39.756Z,53.1381
2023-04-22T03:10:41.082Z,53.1167
2023-04-22T03:11:43.543Z,53.2648
2023-04-22T03:12:44.360Z,53.3862
2023-04-22T03:13:46.500Z,53.5094
2023-04-22T03:14:47.645Z,53.6493
2023-04-22T03:15:49.307Z,53.8601
2023-04-22T03:16:51.016Z,54.2195
2023-04-22T03:17:52.659Z,54.1192
2023-04-22T03:18:54.548Z,54.0227
2023-04-22T03:19:55.857Z,53.8433
2023-04-22T03:20:57.573Z,53.7359
2023-04-22T03:21:59.230Z,53.5081
2023-04-22T03:23:00.882Z,53.6933
2023-04-22T03:24:02.462Z,53.5666
2023-04-22T03:25:04.118Z,53.3032
2023-04-22T03:26:05.752Z,53.0993
2023-04-22T03:27:07.487Z,53.1065
2023-04-22T03:28:09.110Z,53.1938
2023-04-22T03:29:10.743Z,53.3454
2023-04-22T03:30:12.422Z,53.4593
2023-04-22T03:31:14.027Z,53.4804
2023-04-22T03:32:15.809Z,53.7057
2023-04-22T03:33:18.106Z,53.6616
2023-04-22T03:34:18.930Z,53.6110
2023-04-22T03:35:20.645Z,53.6527
2023-04-22T03:36:22.236Z,53.5041
2023-04-22T03:37:23.970Z,53.4648
2023-04-22T03:38:25.613Z,53.2002
2023-04-22T03:39:27.234Z,53.0292
2023-04-22T03:40:28.828Z,53.0412
2023-04-22T03:41:30.537Z,53.0020
2023-04-22T03:42:32.214Z,52.7489
2023-04-22T03:43:33.842Z,52.7094
2023-04-22T03:44:35.438Z,52.6725
2023-04-22T03:45:37.189Z,52.7050
2023-04-22T03:46:38.698Z,52.9258
2023-04-22T03:47:40.455Z,53.1068
2023-04-22T03:48:42.054Z,53.2984
2023-04-22T03:49:43.763Z,53.3163
2023-04-22T03:50:45.346Z,53.3438
2023-04-22T03:51:47.035Z,53.6789
2023-04-22T03:52:48.642Z,53.4733
2023-04-22T03:53:50.337Z,53.3076
2023-04-22T03:54:53.588Z,53.0873
2023-04-22T03:55:53.640Z,52.8548
2023-04-22T03:56:55.200Z,52.4819
2023-04-22T03:57:56.887Z,52.0320
2023-04-22T03:58:58.581Z,51.7772
2023-04-22T04:00:00.559Z,51.6933
2023-04-22T04:01:01.825Z,51.5872
2023-04-22T04:02:03.585Z,51.4927
2023-04-22T04:03:05.304Z,51.4819
2023-04-22T04:04:06.961Z,51.5368
2023-04-22T04:05:08.660Z,51.2842
2023-04-22T04:06:10.052Z,50.9250
2023-04-22T04:07:11.775Z,50.6916
2023-04-22T04:08:13.390Z,50.3885
2023-04-22T04:09:15.007Z,50.1596
2023-04-22T04:10:17.088Z,49.9921
2023-04-22T04:11:18.366Z,49.8552
2023-04-22T04:12:19.920Z,49.8545
2023-04-22T04:13:21.601Z,49.8967
2023-04-22T04:14:23.372Z,49.8441
2023-04-22T04:15:25.105Z,49.7718
2023-04-22T04:16:27.823Z,49.5988
2023-04-22T04:17:28.377Z,49.4177
2023-04-22T04:18:29.975Z,49.2276
2023-04-22T04:19:31.681Z,49.0029
2023-04-22T04:20:34.261Z,48.7788
2023-04-22T04:21:34.992Z,48.6652
2023-04-22T04:22:36.569Z,48.5233
2023-04-22T04:23:38.214Z,48.3677
2023-04-22T04:24:40.042Z,48.2439
2023-04-22T04:25:41.724Z,48.3484
2023-04-22T04:26:43.284Z,48.5292
2023-04-22T04:27:44.876Z,48.7305
2023-04-22T04:28:46.528Z,49.0138
2023-04-22T04:29:48.146Z,49.1614
2023-04-22T04:30:49.899Z,49.0315
2023-04-22T04:31:51.483Z,48.8824
2023-04-22T04:32:53.055Z,48.6726
2023-04-22T04:33:54.788Z,48.5870
2023-04-22T04:34:56.334Z,48.5781
2023-04-22T04:35:58.115Z,48.7174
2023-04-22T04:36:59.757Z,48.8484
2023-04-22T04:38:01.422Z,49.0322
2023-04-22T04:39:02.922Z,49.2619
2023-04-22T04:40:04.776Z,49.3896
2023-04-22T04:41:06.239Z,49.5021
2023-04-22T04:42:07.958Z,49.6466
2023-04-22T04:43:09.636Z,49.7391
2023-04-22T04:44:12.267Z,49.8597
2023-04-22T04:45:12.790Z,49.8596
2023-04-22T04:46:14.617Z,49.7843
2023-04-22T04:47:16.166Z,49.7520
2023-04-22T04:48:17.931Z,49.7540
2023-04-22T04:49:19.468Z,49.7898
2023-04-22T04:50:21.164Z,49.8386
2023-04-22T04:51:22.725Z,49.9190
2023-04-22T04:52:24.477Z,50.0215
2023-04-22T04:53:26.044Z,50.1812
2023-04-22T04:54:27.745Z,50.3366
2023-04-22T04:55:29.313Z,50.4825
2023-04-22T04:56:30.995Z,50.6193
2023-04-22T04:57:32.692Z,50.7872
2023-04-22T04:58:35.333Z,50.9340
2023-04-22T04:59:35.928Z,51.0782
2023-04-22T05:00:37.676Z,51.2054
2023-04-22T05:01:39.358Z,51.2126
2023-04-22T05:02:41.124Z,51.1371
2023-04-22T05:03:42.902Z,51.0848
2023-04-22T05:04:45.256Z,50.9529
2023-04-22T05:05:45.838Z,50.9379
2023-04-22T05:06:48.307Z,51.0106
2023-04-22T05:07:49.235Z,51.1612
2023-04-22T05:08:50.772Z,51.3508
2023-04-22T05:09:52.539Z,51.5062
2023-04-22T05:10:54.056Z,51.6253
2023-04-22T05:11:55.714Z,51.8421
2023-04-22T05:12:58.317Z,52.1005
2023-04-22T05:13:59.110Z,52.1913
2023-04-22T05:15:00.687Z,52.2618
2023-04-22T05:16:02.387Z,52.3164
2023-04-22T05:17:04.288Z,52.4170
2023-04-22T05:18:05.737Z,52.5354
2023-04-22T05:19:07.262Z,52.7395
2023-04-22T05:20:09.017Z,52.7509
2023-04-22T05:21:11.512Z,52.9049
2023-04-22T05:22:12.275Z,52.9052
2023-04-22T05:23:13.837Z,52.9761
2023-04-22T05:24:15.622Z,53.0236
2023-04-22T05:25:17.208Z,53.1148
2023-04-22T05:26:18.815Z,53.2453
2023-04-22T05:27:20.446Z,53.3676
2023-04-22T05:28:22.078Z,53.4156
2023-04-22T05:29:23.784Z,53.4275
2023-04-22T05:30:25.456Z,53.4708
2023-04-22T05:31:27.074Z,53.6201
2023-04-22T05:32:28.761Z,53.6735
2023-04-22T05:33:30.361Z,53.6947
2023-04-22T05:34:31.996Z,53.7154
2023-04-22T05:35:33.728Z,53.5986
2023-04-22T05:36:35.220Z,53.6257
2023-04-22T05:37:36.965Z,53.5583
2023-04-22T05:38:38.563Z,53.7081
2023-04-22T05:39:40.675Z,53.7384
2023-04-22T05:40:41.970Z,53.9241
2023-04-22T05:41:46.150Z,54.0283
2023-04-22T05:42:45.209Z,53.9539
2023-04-22T05:43:46.873Z,53.9431
2023-04-22T05:44:48.448Z,53.9943
2023-04-22T05:45:50.292Z,54.0807
2023-04-22T05:46:51.768Z,54.1158
2023-04-22T05:47:53.425Z,54.1438
2023-04-22T05:48:55.121Z,54.1655
2023-04-22T05:49:56.752Z,54.2261
2023-04-22T05:50:58.328Z,54.2784
2023-04-22T05:52:00.088Z,54.3131
2023-04-22T05:53:01.604Z,54.3855
2023-04-22T05:54:03.339Z,54.4623
2023-04-22T05:55:04.956Z,54.5008
2023-04-22T05:56:06.629Z,54.6407
2023-04-22T05:57:08.279Z,54.6415
2023-04-22T05:58:09.895Z,54.7430
2023-04-22T05:59:11.563Z,54.7759
2023-04-22T06:53:28.112Z,54.8613
2023-04-22T06:54:31.184Z,58.1014
2023-04-22T06:55:32.916Z,58.1740
2023-04-22T06:56:34.455Z,58.1934
2023-04-22T06:57:36.095Z,58.3644
2023-04-22T06:58:37.848Z,58.4556
2023-04-22T06:59:39.652Z,58.5273
2023-04-22T07:00:41.089Z,58.5596
2023-04-22T07:01:42.763Z,58.5481
2023-04-22T07:02:44.423Z,58.6645
2023-04-22T07:03:46.227Z,58.7440
2023-04-22T07:04:47.596Z,58.9210
2023-04-22T07:05:49.314Z,59.0494
2023-04-22T07:06:50.921Z,59.1311
2023-04-22T07:07:53.550Z,59.3582
2023-04-22T07:08:54.284Z,59.3993
2023-04-22T07:09:56.932Z,59.3879
2023-04-22T07:10:57.481Z,59.4553
2023-04-22T07:11:59.581Z,59.5519
2023-04-22T07:13:01.114Z,59.6729
2023-04-22T07:14:02.808Z,59.7421
2023-04-22T07:15:04.164Z,59.8253
2023-04-22T07:16:05.824Z,59.8650
2023-04-22T07:17:07.897Z,59.9717
2023-04-22T07:18:09.011Z,60.1670
2023-04-22T07:19:10.810Z,60.2874
2023-04-22T07:20:12.354Z,60.4418
2023-04-22T07:21:14.056Z,60.5675
2023-04-22T07:22:15.654Z,60.6915
2023-04-22T07:23:17.361Z,60.7736
2023-04-22T07:24:18.978Z,60.8815
2023-04-22T07:25:20.691Z,60.9105
2023-04-22T07:26:22.255Z,61.1475
2023-04-22T07:27:23.940Z,61.3111
2023-04-22T07:28:25.548Z,61.4527
2023-04-22T07:29:27.478Z,61.4856
2023-04-22T07:30:29.123Z,61.6239
2023-04-22T07:31:30.616Z,61.6933
2023-04-22T07:32:32.230Z,61.7913
2023-04-22T07:33:33.814Z,61.9542
2023-04-22T07:34:35.441Z,62.0699
2023-04-22T07:35:37.152Z,62.1958
2023-04-22T07:36:38.874Z,62.3167
2023-04-22T07:37:40.504Z,62.3631
2023-04-22T07:38:42.028Z,62.4525
2023-04-22T07:39:43.706Z,62.4563
2023-04-22T07:40:45.382Z,62.6269
2023-04-22T07:41:47.098Z,62.8047
2023-04-22T07:42:48.593Z,62.9676
2023-04-22T07:43:50.407Z,63.0254
2023-04-22T07:44:52.855Z,63.0839
2023-04-22T07:45:53.712Z,63.0478
2023-04-22T07:46:55.220Z,63.1393
2023-04-22T07:47:56.992Z,63.2343
2023-04-22T07:48:58.461Z,63.2624
2023-04-22T07:50:00.235Z,63.3344
2023-04-22T07:51:03.292Z,63.4091
2023-04-22T07:52:03.798Z,63.5692
2023-04-22T07:53:05.125Z,63.6628
2023-04-22T07:54:06.703Z,63.6469
2023-04-22T07:55:08.420Z,63.2963
2023-04-22T07:56:11.032Z,62.2911
2023-04-22T07:57:11.805Z,56.3975
2023-04-22T07:58:13.336Z,53.5895
2023-04-22T07:59:15.016Z,54.6962
2023-04-22T08:00:16.732Z,54.9399
2023-04-22T08:01:20.152Z,55.0487
2023-04-22T08:02:21.036Z,55.2545
2023-04-22T08:03:21.832Z,55.6990
2023-04-22T08:04:23.693Z,56.1417
2023-04-22T08:05:25.037Z,56.3805
2023-04-22T08:06:27.538Z,56.5178
2023-04-22T08:07:33.001Z,56.7520
2023-04-22T08:08:29.793Z,57.0162
2023-04-22T08:09:31.587Z,57.0705
2023-04-22T08:10:33.190Z,56.9000
2023-04-22T08:11:34.828Z,51.9940
2023-04-22T08:12:36.484Z,47.9306
2023-04-22T08:13:38.150Z,47.9071
2023-04-22T08:14:39.735Z,49.9480
2023-04-22T08:15:41.394Z,50.2623
2023-04-22T08:16:43.143Z,50.4049
2023-04-22T08:17:44.798Z,50.6241
2023-04-22T08:18:46.338Z,51.0327
2023-04-22T08:19:47.956Z,51.4181
2023-04-22T08:20:49.671Z,51.5120
2023-04-22T08:21:51.315Z,51.8126
2023-04-22T08:22:52.983Z,52.2321
2023-04-22T08:23:54.494Z,52.0592
2023-04-22T08:24:56.308Z,48.6646
2023-04-22T08:25:57.786Z,46.2720
2023-04-22T08:26:59.564Z,46.6280
2023-04-22T08:28:01.200Z,48.0377
2023-04-22T08:29:02.844Z,48.6241
2023-04-22T08:30:05.328Z,49.0515
2023-04-22T08:31:07.018Z,49.2283
2023-04-22T08:32:07.780Z,49.0602
2023-04-22T08:33:09.525Z,45.7498
2023-04-22T08:34:11.020Z,44.9415
2023-04-22T08:35:12.736Z,45.3058
2023-04-22T08:36:14.451Z,46.4462
2023-04-22T08:37:16.086Z,47.2697
2023-04-22T08:38:17.732Z,47.5420
2023-04-22T08:39:19.309Z,47.6163
2023-04-22T08:40:20.988Z,48.1394
2023-04-22T08:41:22.628Z,48.3960
2023-04-22T08:42:24.353Z,48.1319
2023-04-22T08:43:25.949Z,45.6023
2023-04-22T08:44:27.566Z,44.9158
2023-04-22T08:45:29.169Z,45.3261
2023-04-22T08:46:30.913Z,45.4167
2023-04-22T08:47:32.582Z,44.1575
2023-04-22T08:48:34.232Z,44.0540
2023-04-22T08:49:35.783Z,44.8171
2023-04-22T08:50:37.460Z,45.0848
2023-04-22T08:51:39.090Z,45.5293
2023-04-22T08:52:40.760Z,46.1003
2023-04-22T08:53:43.408Z,46.4170
2023-04-22T08:54:44.103Z,46.3986
2023-04-22T08:55:45.719Z,45.1565
2023-04-22T08:56:47.311Z,43.3672
2023-04-22T08:57:49.026Z,42.1570
2023-04-22T08:58:50.706Z,41.7516
2023-04-22T08:59:52.292Z,40.9592
2023-04-22T09:00:53.918Z,41.8337
2023-04-22T09:01:55.645Z,42.6103
2023-04-22T09:02:58.242Z,43.0515
2023-04-22T09:03:59.126Z,43.4354
2023-04-22T09:05:00.482Z,43.4258
2023-04-22T09:06:02.222Z,41.6383
2023-04-22T09:07:03.973Z,40.1016
2023-04-22T09:08:05.478Z,39.9229
2023-04-22T09:09:07.145Z,40.5742
2023-04-22T09:10:08.806Z,41.5073
2023-04-22T09:11:10.430Z,41.9564
2023-04-22T09:12:12.111Z,42.1469
2023-04-22T09:13:13.684Z,42.1117
2023-04-22T09:14:16.393Z,41.5232
2023-04-22T09:15:17.024Z,39.8974
2023-04-22T09:16:18.646Z,39.8096
2023-04-22T09:17:20.223Z,39.6966
2023-04-22T09:18:21.942Z,39.3650
2023-04-22T09:19:23.504Z,39.8705
2023-04-22T09:20:25.211Z,39.4284
2023-04-22T09:21:26.877Z,38.3151
2023-04-22T09:22:28.457Z,39.0327
2023-04-22T09:23:30.146Z,40.2051
2023-04-22T09:24:31.734Z,40.8295
2023-04-22T09:25:33.479Z,41.1694
2023-04-22T09:26:35.072Z,41.5662
2023-04-22T09:27:36.730Z,41.9262
2023-04-22T09:28:38.380Z,42.0518
2023-04-22T09:29:40.249Z,41.8617
2023-04-22T09:30:41.694Z,41.3625
2023-04-22T09:31:43.361Z,41.7559
2023-04-22T09:32:45.023Z,40.2062
2023-04-22T09:33:48.309Z,39.1868
2023-04-22T09:34:48.300Z,39.1514
2023-04-22T09:35:50.005Z,39.6786
2023-04-22T09:36:51.611Z,40.2239
2023-04-22T09:37:53.224Z,40.1365
2023-04-22T09:38:54.865Z,40.2167
2023-04-22T09:39:56.550Z,39.4154
2023-04-22T09:40:58.225Z,38.7259
2023-04-22T09:41:59.874Z,38.2997
2023-04-22T09:43:01.502Z,38.2361
2023-04-22T09:44:03.167Z,38.6782
2023-04-22T09:45:04.806Z,39.3377
2023-04-22T09:46:06.563Z,39.7602
2023-04-22T09:47:08.125Z,39.9668
2023-04-22T09:48:09.718Z,38.6565
2023-04-22T09:49:11.429Z,37.5938
2023-04-22T09:50:13.081Z,37.2064
2023-04-22T09:51:14.688Z,37.3641
2023-04-22T09:52:16.395Z,37.6818
2023-04-22T09:53:17.948Z,38.6951
2023-04-22T09:54:19.638Z,39.1910
2023-04-22T09:55:21.291Z,38.1031
2023-04-22T09:56:23.048Z,37.3343
2023-04-22T09:57:24.936Z,38.1452
2023-04-22T09:58:26.214Z,36.8251
2023-04-22T09:59:27.848Z,36.6410
2023-04-22T10:00:29.581Z,37.2838
2023-04-22T10:01:31.242Z,37.0128
2023-04-22T10:02:32.957Z,36.8610
2023-04-22T10:03:34.464Z,37.3264
2023-04-22T10:04:36.164Z,37.0688
2023-04-22T10:05:37.809Z,36.9578
2023-04-22T10:06:39.526Z,36.6851
2023-04-22T10:07:41.128Z,37.0323
2023-04-22T10:08:42.743Z,37.8806
2023-04-22T10:09:44.418Z,36.5648
2023-04-22T10:10:46.015Z,35.7518
2023-04-22T10:11:47.749Z,35.9172
2023-04-22T10:12:49.401Z,34.6987
2023-04-22T10:13:51.024Z,34.2921
2023-04-22T10:14:52.682Z,34.3102
2023-04-22T10:15:54.469Z,35.7125
2023-04-22T10:16:56.098Z,36.8434
2023-04-22T10:17:59.441Z,35.8272
2023-04-22T10:18:59.227Z,34.5387
2023-04-22T10:20:00.868Z,34.8736
2023-04-22T10:21:02.487Z,34.9544
2023-04-22T10:22:04.192Z,35.1168
2023-04-22T10:23:05.848Z,35.9373
2023-04-22T10:24:07.484Z,35.7040
2023-04-22T10:25:09.065Z,35.4727
2023-04-22T10:26:10.763Z,35.2411
2023-04-22T10:27:12.406Z,35.5235
2023-04-22T10:28:14.111Z,35.1073
2023-04-22T10:29:15.749Z,35.5142
2023-04-22T10:30:17.433Z,34.7626
2023-04-22T10:31:19.157Z,34.7573
2023-04-22T10:32:20.714Z,34.8888
2023-04-22T10:33:22.414Z,34.9271
2023-04-22T10:34:23.997Z,35.8342
2023-04-22T10:35:25.651Z,36.3369
2023-04-22T10:36:27.263Z,37.3622
2023-04-22T10:37:28.980Z,37.7733
2023-04-22T10:38:30.890Z,37.5574
2023-04-22T10:39:32.253Z,37.2093
2023-04-22T10:40:33.877Z,36.0316
2023-04-22T10:41:35.545Z,35.7194
2023-04-22T10:42:37.200Z,35.1646
2023-04-22T10:43:38.876Z,35.3395
2023-04-22T10:44:40.494Z,35.2422
2023-04-22T10:46:43.802Z,34.3176
2023-04-22T10:47:45.456Z,35.1959
2023-04-22T10:48:47.142Z,36.2285
2023-04-22T10:49:48.724Z,35.9355
2023-04-22T10:50:50.435Z,35.4985
2023-04-22T10:51:52.047Z,35.7497
2023-04-22T10:52:53.770Z,35.5389
2023-04-22T10:53:55.414Z,35.9813
2023-04-22T10:54:57.000Z,35.7806
2023-04-22T10:55:58.667Z,36.1389
2023-04-22T10:57:00.297Z,35.9792
2023-04-22T10:58:02.382Z,35.0426
2023-04-22T10:59:03.628Z,35.1565
2023-04-22T11:00:05.227Z,35.6604
2023-04-22T11:01:06.826Z,34.6343
2023-04-22T11:02:08.621Z,35.2797
2023-04-22T11:03:10.337Z,35.8752
2023-04-22T11:04:11.893Z,35.7833
2023-04-22T11:05:13.462Z,35.2384
2023-04-22T11:06:15.123Z,34.4208
2023-04-22T11:07:16.755Z,34.3127
2023-04-22T11:08:18.428Z,34.5237
2023-04-22T11:09:20.149Z,34.6990
2023-04-22T11:10:21.703Z,34.9073
2023-04-22T11:11:23.889Z,34.1624
2023-04-22T11:12:25.027Z,34.0062
2023-04-22T11:13:26.751Z,34.0382
2023-04-22T11:14:28.345Z,33.9440
2023-04-22T11:15:30.036Z,34.0675
2023-04-22T11:16:31.696Z,34.7628
2023-04-22T11:17:33.278Z,34.9246
2023-04-22T11:18:35.398Z,35.2899
2023-04-22T11:19:36.702Z,35.4772
2023-04-22T11:20:38.229Z,34.9960
2023-04-22T11:21:39.859Z,34.2640
2023-04-22T11:22:41.564Z,34.2430
2023-04-22T11:23:43.929Z,33.6576
2023-04-22T11:24:44.908Z,33.4515
2023-04-22T11:25:46.498Z,34.0529
2023-04-22T11:26:48.090Z,33.9434
2023-04-22T11:27:49.895Z,33.9116
2023-04-22T11:28:51.478Z,34.9039
2023-04-22T11:29:53.178Z,35.4090
2023-04-22T11:30:54.839Z,35.6356
2023-04-22T11:31:56.460Z,36.7617
2023-04-22T11:32:58.117Z,36.1865
2023-04-22T11:33:59.754Z,35.4316
2023-04-22T11:35:01.389Z,35.3426
2023-04-22T11:36:03.045Z,35.8863
2023-04-22T11:37:04.641Z,35.8347
2023-04-22T11:38:06.264Z,35.4408
2023-04-22T11:39:08.028Z,34.9492
2023-04-22T11:40:28.209Z,35.1039
2023-04-22T11:41:11.265Z,35.2201
2023-04-22T11:42:12.908Z,35.1067
2023-04-22T11:43:14.509Z,34.5320
2023-04-22T11:44:16.241Z,34.5245
2023-04-22T11:45:17.979Z,34.9527
2023-04-22T11:46:21.164Z,35.2814
2023-04-22T11:47:21.188Z,35.4016
2023-04-22T11:48:22.829Z,34.8883
2023-04-22T11:49:24.575Z,34.9065
2023-04-22T11:50:26.198Z,37.5484
2023-04-22T11:51:27.831Z,45.1822
2023-04-22T11:52:29.384Z,47.7932
2023-04-22T11:53:31.114Z,49.0136
2023-04-22T11:54:32.745Z,51.2800
2023-04-22T11:55:34.460Z,52.7790
2023-04-22T11:56:36.047Z,54.5699
2023-04-22T11:57:37.721Z,55.9461
2023-04-22T11:58:39.349Z,56.9377
2023-04-22T11:59:41.324Z,58.8432
2023-04-22T12:00:42.784Z,59.5212
2023-04-22T12:01:44.299Z,50.3411
2023-04-22T12:02:46.133Z,49.4940
2023-04-22T12:03:47.765Z,50.0365
2023-04-22T12:04:49.308Z,49.5613
2023-04-22T12:05:50.942Z,47.8384
2023-04-22T12:06:52.542Z,45.8319
2023-04-22T12:07:54.223Z,46.6793
2023-04-22T12:08:55.840Z,45.0087
2023-04-22T12:09:57.496Z,44.5490
2023-04-22T12:10:59.156Z,43.8783
2023-04-22T12:12:00.868Z,42.3519
2023-04-22T12:13:02.438Z,42.2629
2023-04-22T12:14:04.148Z,43.9707
2023-04-22T12:15:05.758Z,42.3778
2023-04-22T12:16:07.383Z,41.1339
2023-04-22T12:17:09.305Z,40.8151
2023-04-22T12:18:10.663Z,42.0275
2023-04-22T12:19:12.352Z,41.6901
2023-04-22T12:20:14.010Z,41.4823
2023-04-22T12:21:15.624Z,42.2424
2023-04-22T12:22:17.480Z,43.5850
2023-04-22T12:23:19.013Z,44.4702
2023-04-22T12:24:20.601Z,44.7860
2023-04-22T12:25:22.267Z,43.9338
2023-04-22T12:26:26.190Z,42.5454
2023-04-22T12:27:25.565Z,41.6188
2023-04-22T12:28:27.464Z,41.9273
2023-04-22T12:29:29.011Z,42.1343
2023-04-22T12:30:30.459Z,42.3680
2023-04-22T12:31:32.292Z,41.8280
2023-04-22T12:32:34.407Z,42.7326
2023-04-22T12:33:35.497Z,41.4294
2023-04-22T12:34:37.124Z,42.3322
2023-04-22T12:35:38.691Z,43.4021
2023-04-22T12:36:40.461Z,43.3650
2023-04-22T12:37:42.072Z,42.2925
2023-04-22T12:38:43.776Z,42.6206
2023-04-22T12:39:45.511Z,43.4767
2023-04-22T12:40:47.079Z,43.2703
2023-04-22T12:41:48.601Z,43.4601
2023-04-22T12:42:50.318Z,45.8814
2023-04-22T12:43:52.518Z,46.2669
2023-04-22T12:44:53.601Z,46.6142
2023-04-22T12:45:55.546Z,47.2417
2023-04-22T12:46:56.893Z,47.8223
2023-04-22T12:47:58.569Z,48.4687
2023-04-22T12:49:00.262Z,49.4375
2023-04-22T12:50:01.907Z,50.0664
2023-04-22T12:51:03.579Z,50.6154
2023-04-22T12:52:05.231Z,46.6861
2023-04-22T12:53:07.475Z,46.9641
2023-04-22T12:54:08.421Z,48.4036
2023-04-22T12:55:10.167Z,48.0935
2023-04-22T12:56:11.827Z,47.5064
2023-04-22T12:57:13.409Z,47.6028
2023-04-22T12:58:15.124Z,48.6694
2023-04-22T12:59:16.742Z,49.3020
2023-04-22T13:00:18.374Z,49.7161
2023-04-22T13:01:20.113Z,50.3128
2023-04-22T13:02:21.761Z,50.6001
2023-04-22T13:03:23.436Z,51.1729
2023-04-22T13:04:25.034Z,51.9071
2023-04-22T13:05:26.738Z,52.5600
2023-04-22T13:06:28.282Z,48.8035
2023-04-22T13:07:29.921Z,46.3456
2023-04-22T13:08:31.529Z,45.8180
2023-04-22T13:09:33.283Z,46.2242
2023-04-22T13:10:35.598Z,46.1572
2023-04-22T13:11:36.538Z,46.9744
2023-04-22T13:12:38.653Z,47.6892
2023-04-22T13:13:39.853Z,48.0415
2023-04-22T13:14:41.601Z,48.0726
2023-04-22T13:15:43.103Z,48.7969
2023-04-22T13:16:44.878Z,49.2925
2023-04-22T13:17:48.051Z,49.8894
2023-04-22T13:18:48.985Z,50.1248
2023-04-22T13:19:49.704Z,46.8164